Airfield :
LOGIN :

Register | Disclaimer

   EN    FR    IT 

 










Legend :    VFR   Marginal VFR   IFR   Intensive IFR   Very Intensive IFR
Visi :
Ceiling :
>= 8 km
>= 3000ft
5 to 8 km
1000 to 3000 ft
1500m to 5 km
500 to 1000 ft
800 to 1500m
200 to 500 ft
< 800m
< 200 ft
Symbols :   Thunderstorms  Fog  Heavy snow  Heavy precipitations  Wind > 20 kt
SIGMETs :     Misc.  Thunderstorms  Icing  Turbulence  Mountain Waves  Volcanic Ashes







- Airport Elevation : 141 ft
- IATA code : TGD


LYPG - Podgorica - Montenegro

CURRENT METAR :
  • 171300Z 22003KT 9999 FEW033TCU 33/15 Q1011 TEMPO TS FEW027CB SCT040

EXPIRED METARs :
  • 171230Z 16003KT 9999 FEW040TCU 33/15 Q1011 TEMPO TS FEW027CB SCT040
  • 171200Z 22005KT 160V260 9999 FEW040 32/16 Q1011 NOSIG
  • 171130Z 20005KT 140V230 9999 FEW040 32/17 Q1012 NOSIG
  • 171100Z 18004KT 140V260 9999 FEW040 31/18 Q1012 NOSIG
  • 171030Z 21005KT 160V240 9999 FEW040 31/18 Q1012 NOSIG
  • 171000Z 15004KT 060V230 9999 FEW040 31/17 Q1012 NOSIG

TAF TAF LYPG
Valid from the 17 at 12:00 until the 18 at 12:00 UTC


171100Z 1712/1812 16005KT 9999 FEW030 SCT040 TX32/1713Z TN20/1803Z
TEMPO 1712/1718 36015G25KT 3000 TSRA FEW027CB SCT040
No reported NOTAMs for that airfield.



MET'MAP, your aeronautical weather chart ! - Copyright ORBIFLY December 2007 - Disclaimer

ORBIFLY MET'MAP TEAM :

Programming & Development : Alexandra Zaïnal
Concept & Development : Baudouin d'Aumeries
Co-Development & Prog : Marc-Olivier Méhu
Technical & hardware support : Manuel Goepfert

Contact : metmap@orbifly.com




SOURCES & CREDITS :

   NOAA